International Virtual Aviation Organisation

Russian Federation and Kazakhstan MCD

 

Карточка аэропорта URSS

Внимание!
Информация на этой странице в стадии наполнения.
Если вы не увидели какой-то информации, или заметили неточность - пожалуйста сообщите нам!
Спасибо!
Команда RU-STAFF
Название аэропортаСочи
Название аэропорта (англ.)Sochi
Превышение89 ft. (27.1 m.)
Координаты43°26.634', 39°56.55'
Высота перехода1100m
Эшелон переходаFL050
Коды ответчика1060-1077
Зона ОрВДРостов-на-Дону РПИ (URRV)
Данные METARURSS 191530Z 29003MPS 9999 FEW026 26/22 Q1013 WS ALL RWY R02/010070 R06/010070 NOSIG RMK R06/29003G06MPS MT OBSC QFE758
Проноз погоды (TAF)URSS 191357Z 1915/2015 28006MPS 9999 SCT020 BECMG 1918/1919 05005MPS BKN015 FM200700 23004G09MPS 9999 SCT020 SCT100 TEMPO 2007/2009 18004G09MPS BECMG 2010/2012 28006MPS BKN020CB OVC100 TEMPO 2012/2015 VRB09G14MPS -TSRA
NOTAMshow/hide NOTAM
AWOS   TABLE

Информация о ВПП

ВПП Длина ВПП (м.) Покрытие Курс ВПП Частота ILS
062890Цементобетон58111.1
242890Цементобетон238 
022500Цементобетон22110.5
202500Цементобетон202 

Диспетчерские позиции

Позывной Наименование органа УВД Частота
URSS_GNDСочи-Руление119.000
URSS_TWRСочи-Старт121.200
URSS_APPСочи-Подход118.300
URSS_R_APPСочи-Круг119.700
URSS_DELСочи-Деливери132.700
URSS_FM1119.000



Спутниковое изображение